Search METAR Data

METAR Data for ENGM:

ENGM 211250Z 15009KT 9999 BKN048 23/15 Q1010 NOSIG